Vestborg — E5U2070 — position and weather

sailwx.info

Track history (hours):
 
Tides and Currents Weather Stations Pressure Air Temp Water Temp Dewpoint Dewpoint Depression Visibility Wind Speed Wind Dir Waves Ship Positions

Vestborg

Last reported at 2015-Mar-01 15:26 UTC. Time now 2015-Mar-01 16:40 UTC.
Position N 57°03' E 010°04'.

Length 66 m; draft 5.6 m.

Type: Cargo ship. MMSI: 518120000.

Date/timePositionNaut miles runAvg speedWind from/ knotsBaromVisibWave heightAir tempDewpointWater temp
2015-Mar-01 15:26N 57°03' E 010°04'0 0.0
2015-Mar-01 14:14N 57°03' E 010°04'0 0.0
2015-Mar-01 13:32N 57°03' E 010°04'0 0.0
2015-Mar-01 11:33N 57°03' E 010°04'0 0.0
2015-Mar-01 10:33N 57°03' E 010°04'0 0.0
2015-Mar-01 09:33N 57°03' E 010°04'0 0.0
2015-Mar-01 08:32N 57°03' E 010°04'0 0.0
2015-Mar-01 07:33N 57°03' E 010°04'5 5.3
2015-Mar-01 06:32N 56°60' E 010°12'33 4.5
2015-Feb-28 23:10N 57°28' E 010°43'5 6.0
2015-Feb-28 22:21N 57°33' E 010°43'8 6.0
2015-Feb-28 21:05N 57°40' E 010°45'6 6.2
2015-Feb-28 20:07N 57°46' E 010°45'5 8.2
2015-Feb-28 19:32N 57°48' E 010°36'134 7.9
2015-Feb-28 02:33N 58°06' E 006°26'7 7.3
2015-Feb-28 01:33N 58°12' E 006°16'7 7.4
2015-Feb-28 00:34N 58°17' E 006°06'7 7.4
2015-Feb-27 23:34N 58°21' E 005°55'7 7.3
2015-Feb-27 22:33N 58°26' E 005°45'8 7.7
2015-Feb-27 21:31N 58°32' E 005°35'14 7.0
2015-Feb-27 19:33N 58°45' E 005°26'6 6.0
2015-Feb-27 18:33N 58°51' E 005°29'7 7.4
2015-Feb-27 17:34N 58°58' E 005°33'5 4.8
2015-Feb-27 16:34N 59°01' E 005°40'8 8.1
2015-Feb-27 15:34N 58°58' E 005°55'7 6.8
2015-Feb-27 14:29N 58°54' E 006°05'0 0.0
2015-Feb-27 12:29N 58°54' E 006°06'0 0.0
2015-Feb-27 11:32N 58°54' E 006°05'0 0.0
2015-Feb-27 10:14N 58°54' E 006°05'0 0.0
2015-Feb-27 09:33N 58°54' E 006°05'0 0.0
2015-Feb-27 08:33N 58°54' E 006°05'0 0.3
2015-Feb-27 07:33N 58°54' E 006°06'4 4.2
2015-Feb-27 06:33N 58°56' E 005°60'8 7.7
2015-Feb-27 05:33N 59°03' E 005°51'8 7.5
2015-Feb-27 04:33N 59°09' E 005°42'9 8.0
2015-Feb-27 03:29N 59°13' E 005°28'14 7.3
2015-Feb-27 01:33N 59°25' E 005°14'1 0.0
2015-Feb-25 20:17N 59°27' E 005°14'14 7.8
2015-Feb-25 18:30N 59°14' E 005°27'8 8.1
2015-Feb-25 17:33N 59°09' E 005°38'9 8.6
2015-Feb-25 16:33N 59°04' E 005°51'8 8.4
2015-Feb-25 15:33N 58°57' E 005°59'7 2.4
2015-Feb-25 12:32N 58°52' E 006°09'0 0.0
2015-Feb-25 11:32N 58°52' E 006°09'0 0.0
2015-Feb-25 10:33N 58°52' E 006°09'0 0.0
2015-Feb-25 09:30N 58°52' E 006°09'0 0.2
2015-Feb-25 08:33N 58°52' E 006°08'9 9.1
2015-Feb-25 07:33N 58°58' E 005°56'9 9.0
2015-Feb-25 06:33N 59°06' E 005°48'9 9.2
2015-Feb-25 05:33N 59°11' E 005°33'10 8.1
2015-Feb-25 04:22N 59°18' E 005°20'8 9.5
2015-Feb-25 03:33N 59°25' E 005°14'1 0.0
2015-Feb-24 00:17N 59°26' E 005°14'13 7.7
2015-Feb-23 22:33N 59°14' E 005°27'8 7.9
2015-Feb-23 21:33N 59°09' E 005°38'8 8.2
2015-Feb-23 20:33N 59°04' E 005°51'8 8.5
2015-Feb-23 19:34N 58°57' E 005°59'7 3.6
2015-Feb-23 17:34N 58°52' E 006°09'0 0.0
2015-Feb-23 16:33N 58°52' E 006°09'0 0.0
2015-Feb-23 15:33N 58°52' E 006°09'0 0.0
2015-Feb-23 14:33N 58°52' E 006°09'0 0.0
2015-Feb-23 13:33N 58°52' E 006°09'0 0.0
2015-Feb-23 12:33N 58°52' E 006°09'0 0.0
2015-Feb-23 11:33N 58°52' E 006°09'0 0.0
2015-Feb-23 10:34N 58°52' E 006°09'5 5.2
2015-Feb-23 09:34N 58°55' E 006°02'9 8.5
2015-Feb-23 08:34N 59°01' E 005°49'8 8.3
2015-Feb-23 07:33N 59°04' E 005°34'8 8.2
2015-Feb-23 06:33N 59°09' E 005°21'8 6.6
2015-Feb-23 05:17N 59°17' E 005°20'7 7.3
2015-Feb-23 04:24N 59°23' E 005°17'6 7.1
2015-Feb-23 03:33N 59°29' E 005°13'  
2015-Feb-19 22:31N 59°26' E 005°14'15 7.5
2015-Feb-19 20:33N 59°12' E 005°22'9 8.6
2015-Feb-19 19:33N 59°03' E 005°20'9 8.6
2015-Feb-19 18:33N 58°54' E 005°22'9 9.4
2015-Feb-19 17:33N 58°45' E 005°25'17 8.5
2015-Feb-19 15:32N 58°30' E 005°39'  
Track history (hours):
 
Tides and Currents Weather Stations Pressure Air Temp Water Temp Dewpoint Dewpoint Depression Visibility Wind Speed Wind Dir Waves Ship Positions

Vestborg

Last reported at 2015-Mar-01 15:26 UTC. Time now 2015-Mar-01 16:40 UTC.
Position N 57°03' E 010°04'.

Length 66 m; draft 5.6 m.

Type: Cargo ship. MMSI: 518120000.

Date/timePositionNaut miles runAvg speedWind from/ knotsBaromVisibWave heightAir tempDewpointWater temp
2015-Mar-01 15:26N 57°03' E 010°04'0 0.0
2015-Mar-01 14:14N 57°03' E 010°04'0 0.0
2015-Mar-01 13:32N 57°03' E 010°04'0 0.0
2015-Mar-01 11:33N 57°03' E 010°04'0 0.0
2015-Mar-01 10:33N 57°03' E 010°04'0 0.0
2015-Mar-01 09:33N 57°03' E 010°04'0 0.0
2015-Mar-01 08:32N 57°03' E 010°04'0 0.0
2015-Mar-01 07:33N 57°03' E 010°04'5 5.3
2015-Mar-01 06:32N 56°60' E 010°12'33 4.5
2015-Feb-28 23:10N 57°28' E 010°43'5 6.0
2015-Feb-28 22:21N 57°33' E 010°43'8 6.0
2015-Feb-28 21:05N 57°40' E 010°45'6 6.2
2015-Feb-28 20:07N 57°46' E 010°45'5 8.2
2015-Feb-28 19:32N 57°48' E 010°36'134 7.9
2015-Feb-28 02:33N 58°06' E 006°26'7 7.3
2015-Feb-28 01:33N 58°12' E 006°16'7 7.4
2015-Feb-28 00:34N 58°17' E 006°06'7 7.4
2015-Feb-27 23:34N 58°21' E 005°55'7 7.3
2015-Feb-27 22:33N 58°26' E 005°45'8 7.7
2015-Feb-27 21:31N 58°32' E 005°35'14 7.0
2015-Feb-27 19:33N 58°45' E 005°26'6 6.0
2015-Feb-27 18:33N 58°51' E 005°29'7 7.4
2015-Feb-27 17:34N 58°58' E 005°33'5 4.8
2015-Feb-27 16:34N 59°01' E 005°40'8 8.1
2015-Feb-27 15:34N 58°58' E 005°55'7 6.8
2015-Feb-27 14:29N 58°54' E 006°05'0 0.0
2015-Feb-27 12:29N 58°54' E 006°06'0 0.0
2015-Feb-27 11:32N 58°54' E 006°05'0 0.0
2015-Feb-27 10:14N 58°54' E 006°05'0 0.0
2015-Feb-27 09:33N 58°54' E 006°05'0 0.0
2015-Feb-27 08:33N 58°54' E 006°05'0 0.3
2015-Feb-27 07:33N 58°54' E 006°06'4 4.2
2015-Feb-27 06:33N 58°56' E 005°60'8 7.7
2015-Feb-27 05:33N 59°03' E 005°51'8 7.5
2015-Feb-27 04:33N 59°09' E 005°42'9 8.0
2015-Feb-27 03:29N 59°13' E 005°28'14 7.3
2015-Feb-27 01:33N 59°25' E 005°14'1 0.0
2015-Feb-25 20:17N 59°27' E 005°14'14 7.8
2015-Feb-25 18:30N 59°14' E 005°27'8 8.1
2015-Feb-25 17:33N 59°09' E 005°38'9 8.6
2015-Feb-25 16:33N 59°04' E 005°51'8 8.4
2015-Feb-25 15:33N 58°57' E 005°59'7 2.4
2015-Feb-25 12:32N 58°52' E 006°09'0 0.0
2015-Feb-25 11:32N 58°52' E 006°09'0 0.0
2015-Feb-25 10:33N 58°52' E 006°09'0 0.0
2015-Feb-25 09:30N 58°52' E 006°09'0 0.2
2015-Feb-25 08:33N 58°52' E 006°08'9 9.1
2015-Feb-25 07:33N 58°58' E 005°56'9 9.0
2015-Feb-25 06:33N 59°06' E 005°48'9 9.2
2015-Feb-25 05:33N 59°11' E 005°33'10 8.1
2015-Feb-25 04:22N 59°18' E 005°20'8 9.5
2015-Feb-25 03:33N 59°25' E 005°14'1 0.0
2015-Feb-24 00:17N 59°26' E 005°14'13 7.7
2015-Feb-23 22:33N 59°14' E 005°27'8 7.9
2015-Feb-23 21:33N 59°09' E 005°38'8 8.2
2015-Feb-23 20:33N 59°04' E 005°51'8 8.5
2015-Feb-23 19:34N 58°57' E 005°59'7 3.6
2015-Feb-23 17:34N 58°52' E 006°09'0 0.0
2015-Feb-23 16:33N 58°52' E 006°09'0 0.0
2015-Feb-23 15:33N 58°52' E 006°09'0 0.0
2015-Feb-23 14:33N 58°52' E 006°09'0 0.0
2015-Feb-23 13:33N 58°52' E 006°09'0 0.0
2015-Feb-23 12:33N 58°52' E 006°09'0 0.0
2015-Feb-23 11:33N 58°52' E 006°09'0 0.0
2015-Feb-23 10:34N 58°52' E 006°09'5 5.2
2015-Feb-23 09:34N 58°55' E 006°02'9 8.5
2015-Feb-23 08:34N 59°01' E 005°49'8 8.3
2015-Feb-23 07:33N 59°04' E 005°34'8 8.2
2015-Feb-23 06:33N 59°09' E 005°21'8 6.6
2015-Feb-23 05:17N 59°17' E 005°20'7 7.3
2015-Feb-23 04:24N 59°23' E 005°17'6 7.1
2015-Feb-23 03:33N 59°29' E 005°13'  
2015-Feb-19 22:31N 59°26' E 005°14'15 7.5
2015-Feb-19 20:33N 59°12' E 005°22'9 8.6
2015-Feb-19 19:33N 59°03' E 005°20'9 8.6
2015-Feb-19 18:33N 58°54' E 005°22'9 9.4
2015-Feb-19 17:33N 58°45' E 005°25'17 8.5
2015-Feb-19 15:32N 58°30' E 005°39'  

Dump ship's entire track history